createdAt,value
2019-03-31T15:44:07.767Z,24.82
2019-03-31T15:46:39.406Z,23.60
2019-03-31T15:49:10.859Z,25.80
2019-03-31T15:51:42.109Z,22.70
2019-03-31T15:54:13.465Z,38.35
2019-03-31T15:56:44.911Z,25.65
2019-03-31T15:59:16.391Z,23.92
2019-03-31T16:01:48.917Z,48.87
2019-03-31T16:04:20.591Z,30.97
2019-03-31T16:06:51.776Z,37.70
2019-03-31T16:09:24.218Z,33.15
2019-03-31T16:11:56.088Z,41.13
2019-03-31T16:14:31.482Z,32.30
2019-03-31T16:17:04.611Z,32.30
2019-03-31T16:19:36.167Z,26.30
2019-03-31T16:22:07.512Z,32.25
2019-03-31T16:24:40.604Z,28.05
2019-03-31T16:29:41.051Z,34.53
2019-03-31T16:32:12.261Z,38.23
2019-03-31T16:34:48.219Z,36.83
2019-03-31T16:37:19.636Z,36.30
2019-03-31T16:39:52.059Z,42.75
2019-03-31T16:42:23.537Z,40.35
2019-03-31T16:44:58.365Z,43.60
2019-03-31T16:47:29.311Z,61.60
2019-03-31T16:50:00.682Z,80.85
2019-03-31T16:52:32.964Z,72.45
2019-03-31T16:55:04.984Z,107.15
2019-03-31T16:57:36.341Z,90.65
2019-03-31T17:00:08.007Z,91.67
2019-03-31T17:02:39.400Z,84.52
2019-03-31T17:05:21.644Z,85.70
2019-03-31T17:07:44.165Z,80.77
2019-03-31T17:10:16.482Z,74.10
2019-03-31T17:12:49.584Z,75.37
2019-03-31T17:15:21.075Z,74.70
2019-03-31T17:17:52.876Z,78.15
2019-03-31T17:20:24.423Z,66.00
2019-03-31T17:22:55.687Z,67.72
2019-03-31T17:25:27.130Z,59.60
2019-03-31T17:27:58.542Z,53.68
2019-03-31T17:30:30.134Z,54.65
2019-03-31T17:33:01.240Z,51.40
2019-03-31T17:35:32.636Z,51.30
2019-03-31T17:38:04.971Z,55.35
2019-03-31T17:40:37.202Z,50.52
2019-03-31T17:43:08.372Z,53.80
2019-03-31T17:45:40.993Z,54.80
2019-03-31T17:48:12.804Z,52.30
2019-03-31T17:50:44.200Z,63.05
2019-03-31T17:53:15.521Z,60.23
2019-03-31T17:55:47.846Z,59.83
2019-03-31T17:58:19.116Z,58.78
2019-03-31T18:00:50.715Z,55.52
2019-03-31T18:03:22.141Z,60.52
2019-03-31T18:05:53.535Z,62.45
2019-03-31T18:08:24.940Z,70.85
2019-03-31T18:10:56.457Z,74.37
2019-03-31T18:13:29.230Z,69.22
2019-03-31T18:16:00.785Z,69.70
2019-03-31T18:18:32.226Z,75.62
2019-03-31T18:21:03.615Z,74.40
2019-03-31T18:23:35.037Z,78.45
2019-03-31T18:26:06.689Z,80.95
2019-03-31T18:28:38.037Z,79.30
2019-03-31T18:31:09.627Z,83.80
2019-03-31T18:33:41.054Z,81.90
2019-03-31T18:36:12.603Z,77.47
2019-03-31T18:38:43.937Z,75.30
2019-03-31T18:41:15.301Z,83.82
2019-03-31T18:43:51.610Z,77.27
2019-03-31T18:46:21.992Z,86.03
2019-03-31T18:48:53.713Z,79.50
2019-03-31T18:51:25.434Z,87.10
2019-03-31T18:54:06.548Z,87.92
2019-03-31T18:56:42.705Z,95.55
2019-03-31T18:59:32.059Z,92.30
2019-03-31T19:02:08.193Z,96.82
2019-03-31T19:04:41.373Z,86.00
2019-03-31T19:07:26.586Z,80.92
2019-03-31T19:10:05.433Z,93.07
2019-03-31T19:12:47.645Z,100.30
2019-03-31T19:15:24.556Z,99.95
2019-03-31T19:17:59.936Z,87.27
2019-03-31T19:20:49.278Z,89.50
2019-03-31T19:23:25.953Z,92.17
2019-03-31T19:26:14.118Z,93.87
2019-03-31T19:28:53.224Z,102.90
2019-03-31T19:31:42.710Z,99.80
2019-03-31T19:34:25.808Z,92.02
2019-03-31T19:36:58.910Z,88.80
2019-03-31T19:39:44.194Z,93.05
2019-03-31T19:42:28.997Z,94.65
2019-03-31T19:45:02.148Z,107.63
2019-03-31T19:47:39.023Z,89.40
2019-03-31T19:50:12.037Z,94.05
2019-03-31T19:52:51.834Z,96.17
2019-03-31T19:55:41.664Z,91.02
2019-03-31T19:58:15.861Z,85.53
2019-03-31T20:01:05.575Z,73.70
2019-03-31T20:03:38.632Z,79.53
2019-03-31T20:06:27.797Z,84.55
2019-03-31T20:09:09.708Z,75.15
2019-03-31T20:11:42.778Z,75.28
2019-03-31T20:14:21.917Z,69.03
2019-03-31T20:17:12.320Z,81.45
2019-03-31T20:20:02.007Z,72.60
2019-03-31T20:22:51.368Z,73.87
2019-03-31T20:25:24.385Z,71.77
2019-03-31T20:28:06.566Z,65.85
2019-03-31T20:30:39.524Z,67.87
2019-03-31T20:33:12.532Z,61.90
2019-03-31T20:35:57.606Z,63.45
2019-03-31T20:38:32.934Z,67.70
2019-03-31T20:41:08.772Z,66.37
2019-03-31T20:43:41.812Z,66.40
2019-03-31T20:46:13.347Z,68.30
2019-03-31T20:48:45.799Z,66.05
2019-03-31T20:51:17.257Z,67.53
2019-03-31T20:53:48.571Z,68.05
2019-03-31T20:56:22.043Z,57.38
2019-03-31T20:58:53.549Z,57.08
2019-03-31T21:01:24.731Z,56.08
2019-03-31T21:03:57.261Z,58.98
2019-03-31T21:06:28.751Z,54.42
2019-03-31T21:08:59.870Z,57.25
2019-03-31T21:11:31.145Z,63.30
2019-03-31T21:14:03.620Z,55.05
2019-03-31T21:16:34.977Z,55.60
2019-03-31T21:19:06.111Z,54.90
2019-03-31T21:21:38.132Z,61.05
2019-03-31T21:26:38.799Z,63.78
2019-03-31T21:29:10.176Z,71.25
2019-03-31T21:31:42.344Z,65.35
2019-03-31T21:34:13.590Z,59.95
2019-03-31T21:36:44.996Z,63.17
2019-03-31T21:39:16.290Z,62.78
2019-03-31T21:41:47.442Z,71.80
2019-03-31T21:44:18.746Z,65.12
2019-03-31T21:46:49.881Z,68.37
2019-03-31T21:49:22.205Z,72.78
2019-03-31T21:51:53.671Z,57.80
2019-03-31T21:54:26.445Z,52.90
2019-03-31T21:56:57.707Z,60.00
2019-03-31T21:59:29.061Z,51.48
2019-03-31T22:02:00.361Z,44.98
2019-03-31T22:04:31.839Z,43.23
2019-03-31T22:07:03.300Z,34.75
2019-03-31T22:09:34.617Z,38.75
2019-03-31T22:12:05.985Z,38.60
2019-03-31T22:14:37.140Z,35.43
2019-03-31T22:17:08.250Z,35.58
2019-03-31T22:19:39.532Z,36.20
2019-03-31T22:22:10.889Z,33.78
2019-03-31T22:24:42.189Z,38.42
2019-03-31T22:27:13.588Z,33.00
2019-03-31T22:29:45.027Z,37.67
2019-03-31T22:32:16.504Z,32.67
2019-03-31T22:34:47.926Z,36.70
2019-03-31T22:37:19.047Z,36.28
2019-03-31T22:39:50.555Z,40.17
2019-03-31T22:42:21.797Z,40.75
2019-03-31T22:44:53.137Z,39.55
2019-03-31T22:47:24.416Z,41.18
2019-03-31T22:49:56.841Z,40.73
2019-03-31T22:52:28.628Z,36.75
2019-03-31T22:54:59.741Z,38.17
2019-03-31T22:57:31.201Z,39.30
2019-03-31T23:00:02.521Z,38.05
2019-03-31T23:02:35.562Z,41.10
2019-03-31T23:05:06.690Z,46.23
2019-03-31T23:07:37.957Z,46.68
2019-03-31T23:10:09.106Z,43.58
2019-03-31T23:12:42.274Z,46.10
2019-03-31T23:15:13.520Z,39.42
2019-03-31T23:17:44.972Z,47.05
2019-03-31T23:20:16.114Z,42.15
2019-03-31T23:22:47.394Z,42.05
2019-03-31T23:25:18.490Z,39.55
2019-03-31T23:27:49.934Z,41.42
2019-03-31T23:30:21.176Z,43.65
2019-03-31T23:32:52.550Z,36.28
2019-03-31T23:35:23.792Z,42.55
2019-03-31T23:37:55.299Z,39.25
2019-03-31T23:40:26.750Z,38.25
2019-03-31T23:42:58.053Z,39.92
2019-03-31T23:45:32.282Z,35.80
2019-03-31T23:48:02.800Z,34.63
2019-03-31T23:50:34.772Z,35.80
2019-03-31T23:53:06.008Z,36.00
2019-03-31T23:55:37.401Z,38.60
2019-03-31T23:58:08.716Z,37.10
